sensor_id;sensor_type;location;lat;lon;timestamp;pressure;altitude;pressure_sealevel;temperature;humidity
46079;BME280;31820;51.880;-0.518;2022-08-03T00:01:24;99407.28;;;20.00;100.00
46079;BME280;31820;51.880;-0.518;2022-08-03T00:03:49;99417.34;;;19.93;100.00
46079;BME280;31820;51.880;-0.518;2022-08-03T00:06:15;99407.22;;;19.87;100.00
46079;BME280;31820;51.880;-0.518;2022-08-03T00:08:40;99411.00;;;19.86;100.00
46079;BME280;31820;51.880;-0.518;2022-08-03T00:11:06;99408.03;;;19.81;100.00
46079;BME280;31820;51.880;-0.518;2022-08-03T00:13:32;99399.63;;;19.82;100.00
46079;BME280;31820;51.880;-0.518;2022-08-03T00:15:57;99385.72;;;19.77;100.00
46079;BME280;31820;51.880;-0.518;2022-08-03T00:18:23;99399.56;;;19.76;100.00
46079;BME280;31820;51.880;-0.518;2022-08-03T00:20:49;99400.59;;;19.75;100.00
46079;BME280;31820;51.880;-0.518;2022-08-03T00:23:14;99400.16;;;19.71;100.00
46079;BME280;31820;51.880;-0.518;2022-08-03T00:25:40;99395.94;;;19.68;100.00
46079;BME280;31820;51.880;-0.518;2022-08-03T00:28:06;99393.19;;;19.68;100.00
46079;BME280;31820;51.880;-0.518;2022-08-03T00:30:32;99395.09;;;19.68;100.00
46079;BME280;31820;51.880;-0.518;2022-08-03T00:32:58;99391.72;;;19.66;100.00
46079;BME280;31820;51.880;-0.518;2022-08-03T00:35:24;99394.88;;;19.63;100.00
46079;BME280;31820;51.880;-0.518;2022-08-03T00:37:50;99386.19;;;19.59;100.00
46079;BME280;31820;51.880;-0.518;2022-08-03T00:40:17;99378.47;;;19.63;100.00
46079;BME280;31820;51.880;-0.518;2022-08-03T00:45:19;99371.69;;;19.59;100.00
46079;BME280;31820;51.880;-0.518;2022-08-03T00:47:45;99373.38;;;19.60;100.00
46079;BME280;31820;51.880;-0.518;2022-08-03T00:50:10;99359.03;;;19.51;100.00
46079;BME280;31820;51.880;-0.518;2022-08-03T00:52:36;99368.53;;;19.55;100.00
46079;BME280;31820;51.880;-0.518;2022-08-03T00:55:03;99369.53;;;19.47;100.00
46079;BME280;31820;51.880;-0.518;2022-08-03T00:57:31;99363.22;;;19.47;100.00
46079;BME280;31820;51.880;-0.518;2022-08-03T00:59:58;99374.97;;;19.41;100.00
46079;BME280;31820;51.880;-0.518;2022-08-03T01:02:25;99369.91;;;19.38;100.00
46079;BME280;31820;51.880;-0.518;2022-08-03T01:04:51;99365.03;;;19.33;100.00
46079;BME280;31820;51.880;-0.518;2022-08-03T01:10:52;99368.22;;;19.37;100.00
46079;BME280;31820;51.880;-0.518;2022-08-03T01:13:27;99371.13;;;19.35;100.00
46079;BME280;31820;51.880;-0.518;2022-08-03T01:16:01;99363.13;;;19.33;100.00
46079;BME280;31820;51.880;-0.518;2022-08-03T01:18:39;99369.47;;;19.34;100.00
46079;BME280;31820;51.880;-0.518;2022-08-03T01:21:17;99369.28;;;19.36;100.00
46079;BME280;31820;51.880;-0.518;2022-08-03T01:26:50;99373.44;;;19.31;100.00
46079;BME280;31820;51.880;-0.518;2022-08-03T01:32:06;99377.50;;;19.42;100.00
46079;BME280;31820;51.880;-0.518;2022-08-03T01:34:40;99383.81;;;19.43;100.00
46079;BME280;31820;51.880;-0.518;2022-08-03T01:37:08;99375.41;;;19.44;100.00
46079;BME280;31820;51.880;-0.518;2022-08-03T01:39:36;99371.84;;;19.44;100.00
46079;BME280;31820;51.880;-0.518;2022-08-03T01:42:05;99364.66;;;19.43;100.00
46079;BME280;31820;51.880;-0.518;2022-08-03T01:44:37;99375.59;;;19.43;100.00
46079;BME280;31820;51.880;-0.518;2022-08-03T01:47:05;99376.25;;;19.45;100.00
46079;BME280;31820;51.880;-0.518;2022-08-03T01:49:35;99380.03;;;19.44;100.00
46079;BME280;31820;51.880;-0.518;2022-08-03T01:52:02;99367.41;;;19.43;100.00
46079;BME280;31820;51.880;-0.518;2022-08-03T01:54:28;99368.84;;;19.39;100.00
46079;BME280;31820;51.880;-0.518;2022-08-03T01:56:56;99376.03;;;19.46;100.00
46079;BME280;31820;51.880;-0.518;2022-08-03T01:59:22;99375.19;;;19.46;100.00
46079;BME280;31820;51.880;-0.518;2022-08-03T02:01:50;99380.69;;;19.46;100.00
46079;BME280;31820;51.880;-0.518;2022-08-03T02:04:19;99372.47;;;19.46;100.00
46079;BME280;31820;51.880;-0.518;2022-08-03T02:06:47;99367.81;;;19.40;100.00
46079;BME280;31820;51.880;-0.518;2022-08-03T02:09:14;99371.84;;;19.44;100.00
46079;BME280;31820;51.880;-0.518;2022-08-03T02:11:42;99372.88;;;19.43;100.00
46079;BME280;31820;51.880;-0.518;2022-08-03T02:14:09;99373.91;;;19.42;100.00
46079;BME280;31820;51.880;-0.518;2022-08-03T02:16:35;99348.03;;;19.38;100.00
46079;BME280;31820;51.880;-0.518;2022-08-03T02:19:04;99365.28;;;19.38;100.00
46079;BME280;31820;51.880;-0.518;2022-08-03T02:21:32;99355.59;;;19.36;100.00
46079;BME280;31820;51.880;-0.518;2022-08-03T02:23:59;99354.69;;;19.28;100.00
46079;BME280;31820;51.880;-0.518;2022-08-03T02:26:28;99357.03;;;19.31;100.00
46079;BME280;31820;51.880;-0.518;2022-08-03T02:28:55;99352.41;;;19.32;100.00
46079;BME280;31820;51.880;-0.518;2022-08-03T02:31:25;99360.81;;;19.30;100.00
46079;BME280;31820;51.880;-0.518;2022-08-03T02:33:56;99350.06;;;19.29;100.00
46079;BME280;31820;51.880;-0.518;2022-08-03T02:36:27;99353.81;;;19.21;100.00
46079;BME280;31820;51.880;-0.518;2022-08-03T02:38:56;99352.53;;;19.17;100.00
46079;BME280;31820;51.880;-0.518;2022-08-03T02:41:28;99351.69;;;19.16;100.00
46079;BME280;31820;51.880;-0.518;2022-08-03T02:43:56;99344.53;;;19.15;100.00
46079;BME280;31820;51.880;-0.518;2022-08-03T02:46:27;99350.44;;;19.19;100.00
46079;BME280;31820;51.880;-0.518;2022-08-03T02:48:56;99354.88;;;19.20;100.00
46079;BME280;31820;51.880;-0.518;2022-08-03T02:51:24;99363.06;;;19.20;100.00
46079;BME280;31820;51.880;-0.518;2022-08-03T02:53:53;99366.03;;;19.25;100.00
46079;BME280;31820;51.880;-0.518;2022-08-03T02:56:21;99353.41;;;19.24;100.00
46079;BME280;31820;51.880;-0.518;2022-08-03T02:58:48;99352.16;;;19.27;100.00
46079;BME280;31820;51.880;-0.518;2022-08-03T03:01:15;99357.22;;;19.30;100.00
46079;BME280;31820;51.880;-0.518;2022-08-03T03:03:43;99345.06;;;19.32;100.00
46079;BME280;31820;51.880;-0.518;2022-08-03T03:06:09;99356.00;;;19.32;100.00
46079;BME280;31820;51.880;-0.518;2022-08-03T03:08:35;99357.22;;;19.30;100.00
46079;BME280;31820;51.880;-0.518;2022-08-03T03:11:01;99345.88;;;19.26;100.00
46079;BME280;31820;51.880;-0.518;2022-08-03T03:13:29;99353.88;;;19.28;100.00
46079;BME280;31820;51.880;-0.518;2022-08-03T03:15:56;99350.06;;;19.29;100.00
46079;BME280;31820;51.880;-0.518;2022-08-03T03:18:24;99344.38;;;19.24;100.00
46079;BME280;31820;51.880;-0.518;2022-08-03T03:20:52;99345.41;;;19.23;100.00
46079;BME280;31820;51.880;-0.518;2022-08-03T03:23:20;99349.84;;;19.24;100.00
46079;BME280;31820;51.880;-0.518;2022-08-03T03:25:47;99356.09;;;19.17;100.00
46079;BME280;31820;51.880;-0.518;2022-08-03T03:28:13;99345.38;;;19.16;100.00
46079;BME280;31820;51.880;-0.518;2022-08-03T03:30:39;99353.56;;;19.16;100.00
46079;BME280;31820;51.880;-0.518;2022-08-03T03:33:05;99339.66;;;19.11;100.00
46079;BME280;31820;51.880;-0.518;2022-08-03T03:35:31;99343.22;;;19.11;100.00
46079;BME280;31820;51.880;-0.518;2022-08-03T03:37:57;99355.03;;;19.12;100.00
46079;BME280;31820;51.880;-0.518;2022-08-03T03:40:23;99341.75;;;19.09;100.00
46079;BME280;31820;51.880;-0.518;2022-08-03T03:42:49;99350.84;;;19.16;100.00
46079;BME280;31820;51.880;-0.518;2022-08-03T03:45:15;99353.13;;;19.12;100.00
46079;BME280;31820;51.880;-0.518;2022-08-03T03:47:40;99353.78;;;19.14;100.00
46079;BME280;31820;51.880;-0.518;2022-08-03T03:50:06;99359.22;;;19.14;100.00
46079;BME280;31820;51.880;-0.518;2022-08-03T03:52:32;99354.63;;;19.15;100.00
46079;BME280;31820;51.880;-0.518;2022-08-03T03:54:58;99360.09;;;19.15;100.00
46079;BME280;31820;51.880;-0.518;2022-08-03T03:57:24;99351.69;;;19.16;100.00
46079;BME280;31820;51.880;-0.518;2022-08-03T03:59:49;99359.63;;;19.11;100.00
46079;BME280;31820;51.880;-0.518;2022-08-03T04:02:14;99357.09;;;19.10;100.00
46079;BME280;31820;51.880;-0.518;2022-08-03T04:04:40;99362.38;;;19.11;100.00
46079;BME280;31820;51.880;-0.518;2022-08-03T04:07:26;99366.38;;;19.09;100.00
46079;BME280;31820;51.880;-0.518;2022-08-03T04:10:21;99368.44;;;19.07;100.00
46079;BME280;31820;51.880;-0.518;2022-08-03T04:13:07;99357.09;;;19.10;100.00
46079;BME280;31820;51.880;-0.518;2022-08-03T04:15:40;99364.25;;;19.11;100.00
46079;BME280;31820;51.880;-0.518;2022-08-03T04:18:08;99361.72;;;19.09;100.00
46079;BME280;31820;51.880;-0.518;2022-08-03T04:20:37;99363.44;;;19.10;100.00
46079;BME280;31820;51.880;-0.518;2022-08-03T04:23:06;99355.81;;;19.06;100.00
46079;BME280;31820;51.880;-0.518;2022-08-03T04:25:34;99359.19;;;19.08;100.00
46079;BME280;31820;51.880;-0.518;2022-08-03T04:28:02;99363.81;;;19.07;100.00
46079;BME280;31820;51.880;-0.518;2022-08-03T04:30:29;99366.75;;;19.06;100.00
46079;BME280;31820;51.880;-0.518;2022-08-03T04:32:56;99365.88;;;19.05;100.00
46079;BME280;31820;51.880;-0.518;2022-08-03T04:35:23;99365.88;;;19.05;100.00
46079;BME280;31820;51.880;-0.518;2022-08-03T04:37:51;99375.59;;;19.08;100.00
46079;BME280;31820;51.880;-0.518;2022-08-03T04:40:32;99376.00;;;19.05;100.00
46079;BME280;31820;51.880;-0.518;2022-08-03T04:42:58;99370.31;;;19.06;100.00
46079;BME280;31820;51.880;-0.518;2022-08-03T04:45:26;99372.25;;;19.12;100.00
46079;BME280;31820;51.880;-0.518;2022-08-03T04:47:52;99378.56;;;19.13;100.00
46079;BME280;31820;51.880;-0.518;2022-08-03T04:50:18;99372.47;;;19.11;100.00
46079;BME280;31820;51.880;-0.518;2022-08-03T04:52:44;99383.84;;;19.14;100.00
46079;BME280;31820;51.880;-0.518;2022-08-03T04:55:09;99379.44;;;19.13;100.00
46079;BME280;31820;51.880;-0.518;2022-08-03T04:57:35;99382.41;;;19.19;100.00
46079;BME280;31820;51.880;-0.518;2022-08-03T05:00:01;99375.03;;;19.19;100.00
46079;BME280;31820;51.880;-0.518;2022-08-03T05:02:26;99378.41;;;19.21;100.00
46079;BME280;31820;51.880;-0.518;2022-08-03T05:04:52;99378.66;;;19.26;100.00
46079;BME280;31820;51.880;-0.518;2022-08-03T05:07:17;99385.50;;;19.44;100.00
46079;BME280;31820;51.880;-0.518;2022-08-03T05:09:43;99388.25;;;19.79;100.00
46079;BME280;31820;51.880;-0.518;2022-08-03T05:12:09;99376.84;;;19.75;100.00
46079;BME280;31820;51.880;-0.518;2022-08-03T05:14:36;99378.38;;;21.20;100.00
46079;BME280;31820;51.880;-0.518;2022-08-03T05:17:07;99380.59;;;21.69;100.00
46079;BME280;31820;51.880;-0.518;2022-08-03T05:19:33;99377.28;;;23.71;100.00
46079;BME280;31820;51.880;-0.518;2022-08-03T05:21:59;99383.38;;;24.82;100.00
46079;BME280;31820;51.880;-0.518;2022-08-03T05:24:24;99383.63;;;25.87;89.27
46079;BME280;31820;51.880;-0.518;2022-08-03T05:26:50;99376.25;;;26.62;84.04
46079;BME280;31820;51.880;-0.518;2022-08-03T05:29:15;99386.78;;;26.20;84.63
46079;BME280;31820;51.880;-0.518;2022-08-03T05:31:41;99390.28;;;25.03;93.66
46079;BME280;31820;51.880;-0.518;2022-08-03T05:34:06;99393.53;;;26.24;87.87
46079;BME280;31820;51.880;-0.518;2022-08-03T05:36:32;99398.25;;;27.20;75.97
46079;BME280;31820;51.880;-0.518;2022-08-03T05:38:57;99390.78;;;27.54;74.50
46079;BME280;31820;51.880;-0.518;2022-08-03T05:41:23;99394.50;;;26.46;81.23
46079;BME280;31820;51.880;-0.518;2022-08-03T05:43:49;99395.53;;;28.69;70.53
46079;BME280;31820;51.880;-0.518;2022-08-03T05:46:15;99386.94;;;26.70;77.32
46079;BME280;31820;51.880;-0.518;2022-08-03T05:48:41;99382.84;;;26.73;77.43
46079;BME280;31820;51.880;-0.518;2022-08-03T05:51:07;99384.75;;;27.23;75.60
46079;BME280;31820;51.880;-0.518;2022-08-03T05:53:36;99389.53;;;26.31;81.91
46079;BME280;31820;51.880;-0.518;2022-08-03T05:56:02;99386.25;;;25.82;81.91
46079;BME280;31820;51.880;-0.518;2022-08-03T05:58:28;99382.75;;;25.34;86.30
46079;BME280;31820;51.880;-0.518;2022-08-03T06:00:53;99388.69;;;25.07;88.09
46079;BME280;31820;51.880;-0.518;2022-08-03T06:03:19;99394.38;;;24.59;93.74
46079;BME280;31820;51.880;-0.518;2022-08-03T06:05:45;99401.78;;;25.00;89.35
46079;BME280;31820;51.880;-0.518;2022-08-03T06:08:10;99394.69;;;24.01;97.08
46079;BME280;31820;51.880;-0.518;2022-08-03T06:10:36;99394.38;;;23.54;100.00
46079;BME280;31820;51.880;-0.518;2022-08-03T06:13:02;99388.75;;;22.99;100.00
46079;BME280;31820;51.880;-0.518;2022-08-03T06:15:28;99392.94;;;22.76;100.00
46079;BME280;31820;51.880;-0.518;2022-08-03T06:17:53;99397.66;;;22.69;100.00
46079;BME280;31820;51.880;-0.518;2022-08-03T06:20:21;99399.16;;;22.65;100.00
46079;BME280;31820;51.880;-0.518;2022-08-03T06:22:47;99393.81;;;22.45;100.00
46079;BME280;31820;51.880;-0.518;2022-08-03T06:25:13;99402.41;;;22.10;100.00
46079;BME280;31820;51.880;-0.518;2022-08-03T06:27:38;99406.13;;;21.77;100.00
46079;BME280;31820;51.880;-0.518;2022-08-03T06:30:09;99407.44;;;21.61;100.00
46079;BME280;31820;51.880;-0.518;2022-08-03T06:32:40;99404.06;;;21.45;100.00
46079;BME280;31820;51.880;-0.518;2022-08-03T06:35:07;99405.97;;;21.45;100.00
46079;BME280;31820;51.880;-0.518;2022-08-03T06:37:43;99400.72;;;21.30;100.00
46079;BME280;31820;51.880;-0.518;2022-08-03T06:40:16;99416.53;;;21.55;100.00
46079;BME280;31820;51.880;-0.518;2022-08-03T06:42:41;99416.13;;;21.44;100.00
46079;BME280;31820;51.880;-0.518;2022-08-03T06:45:08;99413.16;;;21.39;100.00
46079;BME280;31820;51.880;-0.518;2022-08-03T06:47:35;99410.41;;;21.39;100.00
46079;BME280;31820;51.880;-0.518;2022-08-03T06:50:01;99409.78;;;21.37;100.00
46079;BME280;31820;51.880;-0.518;2022-08-03T06:52:27;99407.03;;;21.44;100.00
46079;BME280;31820;51.880;-0.518;2022-08-03T06:54:52;99410.00;;;21.36;100.00
46079;BME280;31820;51.880;-0.518;2022-08-03T06:57:18;99411.91;;;21.48;100.00
46079;BME280;31820;51.880;-0.518;2022-08-03T06:59:43;99412.31;;;21.52;100.00
46079;BME280;31820;51.880;-0.518;2022-08-03T07:02:09;99413.34;;;21.38;100.00
46079;BME280;31820;51.880;-0.518;2022-08-03T07:04:36;99415.06;;;21.59;100.00
46079;BME280;31820;51.880;-0.518;2022-08-03T07:07:01;99416.63;;;22.00;100.00
46079;BME280;31820;51.880;-0.518;2022-08-03T07:09:27;99416.19;;;22.03;100.00
46079;BME280;31820;51.880;-0.518;2022-08-03T07:11:53;99415.78;;;21.93;100.00
46079;BME280;31820;51.880;-0.518;2022-08-03T07:14:19;99412.69;;;21.69;100.00
46079;BME280;31820;51.880;-0.518;2022-08-03T07:16:45;99408.06;;;21.63;100.00
46079;BME280;31820;51.880;-0.518;2022-08-03T07:19:10;99411.25;;;21.60;100.00
46079;BME280;31820;51.880;-0.518;2022-08-03T07:21:36;99411.69;;;21.43;100.00
46079;BME280;31820;51.880;-0.518;2022-08-03T07:24:02;99407.22;;;21.42;100.00
46079;BME280;31820;51.880;-0.518;2022-08-03T07:26:28;99410.41;;;21.46;100.00
46079;BME280;31820;51.880;-0.518;2022-08-03T07:28:53;99407.59;;;21.73;100.00
46079;BME280;31820;51.880;-0.518;2022-08-03T07:31:19;99413.84;;;22.07;100.00
46079;BME280;31820;51.880;-0.518;2022-08-03T07:33:44;99415.97;;;23.07;100.00
46079;BME280;31820;51.880;-0.518;2022-08-03T07:36:10;99414.09;;;23.51;100.00
46079;BME280;31820;51.880;-0.518;2022-08-03T07:38:36;99421.13;;;23.47;100.00
46079;BME280;31820;51.880;-0.518;2022-08-03T07:41:02;99415.88;;;24.19;100.00
46079;BME280;31820;51.880;-0.518;2022-08-03T07:43:27;99404.31;;;23.55;100.00
46079;BME280;31820;51.880;-0.518;2022-08-03T07:45:53;99413.16;;;23.39;100.00
46079;BME280;31820;51.880;-0.518;2022-08-03T07:48:18;99404.97;;;23.07;100.00
46079;BME280;31820;51.880;-0.518;2022-08-03T07:50:44;99420.31;;;22.89;100.00
46079;BME280;31820;51.880;-0.518;2022-08-03T07:53:10;99414.66;;;22.84;100.00
46079;BME280;31820;51.880;-0.518;2022-08-03T07:55:36;99413.97;;;22.64;100.00
46079;BME280;31820;51.880;-0.518;2022-08-03T07:58:05;99417.16;;;22.61;100.00
46079;BME280;31820;51.880;-0.518;2022-08-03T08:00:31;99421.63;;;22.55;100.00
46079;BME280;31820;51.880;-0.518;2022-08-03T08:02:56;99419.13;;;22.53;100.00
46079;BME280;31820;51.880;-0.518;2022-08-03T08:05:22;99416.88;;;22.37;100.00
46079;BME280;31820;51.880;-0.518;2022-08-03T08:07:48;99422.75;;;22.40;100.00
46079;BME280;31820;51.880;-0.518;2022-08-03T08:10:13;99424.91;;;22.38;100.00
46079;BME280;31820;51.880;-0.518;2022-08-03T08:12:40;99424.50;;;22.35;100.00
46079;BME280;31820;51.880;-0.518;2022-08-03T08:15:06;99422.75;;;22.47;100.00
46079;BME280;31820;51.880;-0.518;2022-08-03T08:18:01;99417.09;;;22.35;100.00
46079;BME280;31820;51.880;-0.518;2022-08-03T08:20:30;99411.38;;;22.37;100.00
46079;BME280;31820;51.880;-0.518;2022-08-03T08:22:59;99410.50;;;22.43;100.00
46079;BME280;31820;51.880;-0.518;2022-08-03T08:25:25;99412.59;;;22.48;100.00
46079;BME280;31820;51.880;-0.518;2022-08-03T08:27:51;99423.53;;;22.54;100.00
46079;BME280;31820;51.880;-0.518;2022-08-03T08:30:20;99417.69;;;22.44;100.00
46079;BME280;31820;51.880;-0.518;2022-08-03T08:32:47;99427.44;;;22.40;100.00
46079;BME280;31820;51.880;-0.518;2022-08-03T08:35:13;99421.66;;;22.48;100.00
46079;BME280;31820;51.880;-0.518;2022-08-03T08:37:39;99422.94;;;22.52;100.00
46079;BME280;31820;51.880;-0.518;2022-08-03T08:40:06;99434.19;;;22.37;100.00
46079;BME280;31820;51.880;-0.518;2022-08-03T08:42:32;99424.94;;;22.32;100.00
46079;BME280;31820;51.880;-0.518;2022-08-03T08:45:01;99421.53;;;22.36;100.00
46079;BME280;31820;51.880;-0.518;2022-08-03T08:47:30;99423.63;;;22.41;100.00
46079;BME280;31820;51.880;-0.518;2022-08-03T08:49:58;99424.84;;;22.45;100.00
46079;BME280;31820;51.880;-0.518;2022-08-03T08:52:24;99420.22;;;22.46;100.00
46079;BME280;31820;51.880;-0.518;2022-08-03T08:55:02;99426.16;;;22.43;100.00
46079;BME280;31820;51.880;-0.518;2022-08-03T08:57:49;99423.44;;;22.29;100.00
46079;BME280;31820;51.880;-0.518;2022-08-03T09:00:15;99421.41;;;22.56;100.00
46079;BME280;31820;51.880;-0.518;2022-08-03T09:02:42;99427.28;;;22.67;100.00
46079;BME280;31820;51.880;-0.518;2022-08-03T09:05:16;99420.06;;;22.66;100.00
46079;BME280;31820;51.880;-0.518;2022-08-03T09:07:44;99428.97;;;22.68;100.00
46079;BME280;31820;51.880;-0.518;2022-08-03T09:10:11;99416.84;;;23.01;100.00
46079;BME280;31820;51.880;-0.518;2022-08-03T09:12:38;99414.97;;;23.01;100.00
46079;BME280;31820;51.880;-0.518;2022-08-03T09:15:38;99403.47;;;23.11;100.00
46079;BME280;31820;51.880;-0.518;2022-08-03T09:18:04;99416.53;;;23.41;100.00
46079;BME280;31820;51.880;-0.518;2022-08-03T09:20:32;99417.63;;;23.15;100.00
46079;BME280;31820;51.880;-0.518;2022-08-03T09:25:40;99427.72;;;23.21;100.00
46079;BME280;31820;51.880;-0.518;2022-08-03T09:28:13;99424.94;;;22.95;100.00
46079;BME280;31820;51.880;-0.518;2022-08-03T09:30:44;99427.53;;;22.90;100.00
46079;BME280;31820;51.880;-0.518;2022-08-03T09:33:12;99426.91;;;22.88;100.00
46079;BME280;31820;51.880;-0.518;2022-08-03T09:35:46;99426.47;;;22.59;100.00
46079;BME280;31820;51.880;-0.518;2022-08-03T09:40:37;99421.19;;;22.90;100.00
46079;BME280;31820;51.880;-0.518;2022-08-03T09:43:03;99405.81;;;22.82;100.00
46079;BME280;31820;51.880;-0.518;2022-08-03T09:45:33;99428.50;;;23.03;100.00
46079;BME280;31820;51.880;-0.518;2022-08-03T09:48:25;99438.56;;;23.41;100.00
46079;BME280;31820;51.880;-0.518;2022-08-03T09:53:18;99429.00;;;23.62;100.00
46079;BME280;31820;51.880;-0.518;2022-08-03T09:55:55;99423.28;;;23.63;100.00
46079;BME280;31820;51.880;-0.518;2022-08-03T09:58:22;99421.53;;;23.69;100.00
46079;BME280;31820;51.880;-0.518;2022-08-03T10:00:51;99422.59;;;23.68;100.00
46079;BME280;31820;51.880;-0.518;2022-08-03T10:03:18;99430.47;;;23.83;100.00
46079;BME280;31820;51.880;-0.518;2022-08-03T10:05:44;99415.97;;;23.76;100.00
46079;BME280;31820;51.880;-0.518;2022-08-03T10:08:18;99418.34;;;23.72;100.00
46079;BME280;31820;51.880;-0.518;2022-08-03T10:10:46;99422.44;;;23.63;100.00
46079;BME280;31820;51.880;-0.518;2022-08-03T10:13:13;99422.16;;;23.71;100.00
46079;BME280;31820;51.880;-0.518;2022-08-03T10:15:39;99422.06;;;23.78;100.00
46079;BME280;31820;51.880;-0.518;2022-08-03T10:18:05;99418.72;;;23.76;100.00
46079;BME280;31820;51.880;-0.518;2022-08-03T10:21:02;99393.84;;;23.64;100.00
46079;BME280;31820;51.880;-0.518;2022-08-03T10:23:35;99424.75;;;23.66;100.00
46079;BME280;31820;51.880;-0.518;2022-08-03T10:26:03;99415.94;;;23.57;100.00
46079;BME280;31820;51.880;-0.518;2022-08-03T10:28:34;99415.19;;;23.50;100.00
46079;BME280;31820;51.880;-0.518;2022-08-03T10:31:01;99415.84;;;23.64;100.00
46079;BME280;31820;51.880;-0.518;2022-08-03T10:33:31;99419.63;;;23.70;100.00
46079;BME280;31820;51.880;-0.518;2022-08-03T10:36:00;99426.94;;;23.57;100.00
46079;BME280;31820;51.880;-0.518;2022-08-03T10:38:34;99429.16;;;23.48;100.00
46079;BME280;31820;51.880;-0.518;2022-08-03T10:41:02;99426.94;;;23.57;100.00
46079;BME280;31820;51.880;-0.518;2022-08-03T10:43:36;99418.06;;;23.37;100.00
46079;BME280;31820;51.880;-0.518;2022-08-03T10:46:06;99421.78;;;23.67;100.00
46079;BME280;31820;51.880;-0.518;2022-08-03T10:48:34;99418.56;;;23.89;100.00
46079;BME280;31820;51.880;-0.518;2022-08-03T10:51:00;99411.31;;;23.95;100.00
46079;BME280;31820;51.880;-0.518;2022-08-03T10:53:37;99421.22;;;24.14;100.00
46079;BME280;31820;51.880;-0.518;2022-08-03T10:56:03;99411.66;;;24.17;100.00
46079;BME280;31820;51.880;-0.518;2022-08-03T10:58:51;99418.66;;;24.50;100.00
46079;BME280;31820;51.880;-0.518;2022-08-03T11:01:19;99413.88;;;24.57;100.00
46079;BME280;31820;51.880;-0.518;2022-08-03T11:06:29;99406.31;;;24.83;100.00
46079;BME280;31820;51.880;-0.518;2022-08-03T11:09:21;99406.72;;;25.10;100.00
46079;BME280;31820;51.880;-0.518;2022-08-03T11:11:47;99402.81;;;24.87;100.00
46079;BME280;31820;51.880;-0.518;2022-08-03T11:14:20;99411.13;;;24.99;100.00
46079;BME280;31820;51.880;-0.518;2022-08-03T11:16:50;99406.69;;;24.98;100.00
46079;BME280;31820;51.880;-0.518;2022-08-03T11:19:47;99412.47;;;25.20;100.00
46079;BME280;31820;51.880;-0.518;2022-08-03T11:22:13;99405.38;;;25.24;100.00
46079;BME280;31820;51.880;-0.518;2022-08-03T11:27:21;99412.38;;;25.51;99.55
46079;BME280;31820;51.880;-0.518;2022-08-03T11:35:31;99415.97;;;25.39;98.13
46079;BME280;31820;51.880;-0.518;2022-08-03T11:40:40;99412.75;;;25.31;99.31
46079;BME280;31820;51.880;-0.518;2022-08-03T11:43:08;99415.69;;;25.05;100.00
46079;BME280;31820;51.880;-0.518;2022-08-03T11:45:35;99408.38;;;24.99;99.45
46079;BME280;31820;51.880;-0.518;2022-08-03T11:48:13;99416.16;;;25.14;99.39
46079;BME280;31820;51.880;-0.518;2022-08-03T11:50:40;99416.56;;;25.30;98.02
46079;BME280;31820;51.880;-0.518;2022-08-03T11:53:13;99417.38;;;25.18;99.35
46079;BME280;31820;51.880;-0.518;2022-08-03T11:55:40;99411.06;;;25.41;98.44
46079;BME280;31820;51.880;-0.518;2022-08-03T11:58:07;99403.94;;;25.69;95.21
46079;BME280;31820;51.880;-0.518;2022-08-03T12:00:33;99421.59;;;25.80;95.17
46079;BME280;31820;51.880;-0.518;2022-08-03T12:03:02;99411.84;;;25.77;93.16
46079;BME280;31820;51.880;-0.518;2022-08-03T12:08:07;99399.75;;;25.19;96.96
46079;BME280;31820;51.880;-0.518;2022-08-03T12:10:37;99420.41;;;25.28;97.23
46079;BME280;31820;51.880;-0.518;2022-08-03T12:13:04;99426.53;;;25.42;95.08
46079;BME280;31820;51.880;-0.518;2022-08-03T12:15:31;99427.72;;;25.58;94.99
46079;BME280;31820;51.880;-0.518;2022-08-03T12:18:02;99431.22;;;25.54;93.98
46079;BME280;31820;51.880;-0.518;2022-08-03T12:20:29;99420.16;;;25.18;95.31
46079;BME280;31820;51.880;-0.518;2022-08-03T12:23:02;99428.91;;;25.15;97.59
46079;BME280;31820;51.880;-0.518;2022-08-03T12:25:28;99433.19;;;24.99;98.08
46079;BME280;31820;51.880;-0.518;2022-08-03T12:28:16;99432.84;;;25.07;98.94
46079;BME280;31820;51.880;-0.518;2022-08-03T12:30:45;99437.78;;;25.17;97.12
46079;BME280;31820;51.880;-0.518;2022-08-03T12:33:20;99437.09;;;25.45;95.98
46079;BME280;31820;51.880;-0.518;2022-08-03T12:35:47;99426.53;;;25.42;95.23
46079;BME280;31820;51.880;-0.518;2022-08-03T12:38:18;99428.22;;;25.67;95.63
46079;BME280;31820;51.880;-0.518;2022-08-03T12:40:44;99438.31;;;25.50;94.04
46079;BME280;31820;51.880;-0.518;2022-08-03T12:43:12;99436.00;;;25.58;94.69
46079;BME280;31820;51.880;-0.518;2022-08-03T12:45:39;99429.19;;;25.37;96.09
46079;BME280;31820;51.880;-0.518;2022-08-03T12:48:08;99438.41;;;25.55;95.85
46079;BME280;31820;51.880;-0.518;2022-08-03T12:50:36;99437.13;;;25.57;96.03
46079;BME280;31820;51.880;-0.518;2022-08-03T12:53:05;99431.09;;;25.60;94.40
46079;BME280;31820;51.880;-0.518;2022-08-03T12:55:31;99415.84;;;25.70;91.98
46079;BME280;31820;51.880;-0.518;2022-08-03T12:58:01;99426.41;;;25.61;92.14
46079;BME280;31820;51.880;-0.518;2022-08-03T13:00:27;99420.88;;;25.73;92.88
46079;BME280;31820;51.880;-0.518;2022-08-03T13:03:02;99424.97;;;25.58;92.67
46079;BME280;31820;51.880;-0.518;2022-08-03T13:05:29;99422.22;;;25.70;91.79
46079;BME280;31820;51.880;-0.518;2022-08-03T13:07:55;99420.63;;;25.74;93.09
46079;BME280;31820;51.880;-0.518;2022-08-03T13:10:29;99423.03;;;25.71;94.46
46079;BME280;31820;51.880;-0.518;2022-08-03T13:12:55;99418.25;;;25.78;92.38
46079;BME280;31820;51.880;-0.518;2022-08-03T13:15:23;99418.06;;;25.96;91.56
46079;BME280;31820;51.880;-0.518;2022-08-03T13:17:51;99412.78;;;25.95;91.20
46079;BME280;31820;51.880;-0.518;2022-08-03T13:20:16;99406.31;;;26.01;89.28
46079;BME280;31820;51.880;-0.518;2022-08-03T13:22:45;99415.81;;;26.05;90.57
46079;BME280;31820;51.880;-0.518;2022-08-03T13:25:11;99410.28;;;25.81;91.39